TimeCST,TemperatureF,Dew PointF,Humidity,Sea Level PressureIn,VisibilityMPH,Wind Direction,Wind SpeedMPH,Gust SpeedMPH,PrecipitationIn,Events,Conditions,WindDirDegrees,DateUTC
12:15 AM,8.6,6.8,92,29.69,7.0,SSW,11.5,-,N/A,,Overcast,210,2012-12-11 06:15:00
12:35 AM,8.6,5.0,85,29.70,7.0,SW,9.2,-,N/A,,Overcast,220,2012-12-11 06:35:00
12:55 AM,8.6,6.8,92,29.69,6.0,SSW,9.2,-,N/A,,Overcast,210,2012-12-11 06:55:00
1:15 AM,8.6,6.8,92,29.69,10.0,SW,8.1,-,N/A,,Overcast,220,2012-12-11 07:15:00
1:35 AM,8.6,6.8,92,29.69,10.0,SW,8.1,-,N/A,,Overcast,220,2012-12-11 07:35:00
1:55 AM,8.6,6.8,92,29.69,10.0,WSW,8.1,-,N/A,,Overcast,240,2012-12-11 07:55:00
2:15 AM,8.6,6.8,92,29.69,10.0,SW,6.9,-,N/A,,Overcast,230,2012-12-11 08:15:00
2:35 AM,10.4,6.8,85,29.70,10.0,West,8.1,-,N/A,,Overcast,260,2012-12-11 08:35:00
2:55 AM,10.4,6.8,85,29.70,7.0,West,10.4,-,N/A,,Overcast,270,2012-12-11 08:55:00
3:15 AM,8.6,6.8,92,29.70,10.0,WNW,9.2,-,N/A,,Overcast,290,2012-12-11 09:15:00
3:35 AM,8.6,5.0,85,29.71,9.0,WNW,10.4,-,N/A,,Overcast,290,2012-12-11 09:35:00
3:55 AM,8.6,3.2,79,29.71,10.0,WNW,12.7,-,N/A,,Overcast,300,2012-12-11 09:55:00
4:15 AM,8.6,3.2,79,29.71,10.0,WNW,10.4,-,N/A,,Overcast,300,2012-12-11 10:15:00
4:35 AM,6.8,3.2,85,29.71,10.0,WNW,9.2,-,N/A,,Overcast,290,2012-12-11 10:35:00
4:55 AM,6.8,3.2,85,29.73,10.0,WNW,11.5,-,N/A,,Overcast,300,2012-12-11 10:55:00
5:15 AM,6.8,3.2,85,29.73,10.0,WNW,8.1,-,N/A,,Overcast,290,2012-12-11 11:15:00
5:35 AM,6.8,3.2,85,29.73,10.0,NW,10.4,-,N/A,,Overcast,310,2012-12-11 11:35:00
5:55 AM,6.8,3.2,85,29.74,10.0,WNW,11.5,-,N/A,,Overcast,300,2012-12-11 11:55:00
6:15 AM,6.8,1.4,79,29.76,9.0,WNW,11.5,-,N/A,,Overcast,300,2012-12-11 12:15:00
6:35 AM,6.8,3.2,85,29.76,8.0,NW,13.8,-,N/A,,Overcast,310,2012-12-11 12:35:00
6:55 AM,6.8,3.2,85,29.77,8.0,NW,13.8,-,N/A,,Overcast,310,2012-12-11 12:55:00
7:15 AM,6.8,1.4,79,29.77,10.0,NW,13.8,-,N/A,,Overcast,320,2012-12-11 13:15:00
7:35 AM,6.8,1.4,79,29.77,10.0,NW,12.7,-,N/A,,Overcast,310,2012-12-11 13:35:00
7:55 AM,6.8,1.4,79,29.78,10.0,NW,16.1,20.7,N/A,,Overcast,320,2012-12-11 13:55:00
8:15 AM,6.8,-0.4,72,29.78,10.0,NW,11.5,-,N/A,,Overcast,310,2012-12-11 14:15:00
8:35 AM,5.0,1.4,85,29.79,10.0,NW,15.0,-,N/A,,Overcast,310,2012-12-11 14:35:00
8:55 AM,5.0,1.4,85,29.80,6.0,WNW,10.4,-,N/A,,Overcast,300,2012-12-11 14:55:00
9:15 AM,5.0,-0.4,78,29.80,3.0,WNW,10.4,-,N/A,,Overcast,300,2012-12-11 15:15:00
9:35 AM,5.0,-0.4,78,29.81,3.0,WNW,12.7,-,N/A,,Overcast,300,2012-12-11 15:35:00
9:55 AM,3.2,-0.4,85,29.82,4.0,NW,13.8,-,N/A,,Overcast,310,2012-12-11 15:55:00
10:15 AM,3.2,1.4,92,29.83,1.8,NW,16.1,-,N/A,,Overcast,320,2012-12-11 16:15:00
10:35 AM,3.2,-2.2,78,29.84,5.0,NW,16.1,-,N/A,,Overcast,310,2012-12-11 16:35:00
10:55 AM,3.2,-2.2,78,29.84,5.0,NW,12.7,-,N/A,,Overcast,310,2012-12-11 16:55:00
11:15 AM,3.2,-2.2,78,29.84,9.0,WNW,11.5,-,N/A,,Mostly Cloudy,300,2012-12-11 17:15:00
11:35 AM,3.2,-2.2,78,29.84,10.0,WNW,9.2,-,N/A,,Partly Cloudy,290,2012-12-11 17:35:00
11:55 AM,3.2,-2.2,78,29.84,10.0,WNW,10.4,-,N/A,,Clear,300,2012-12-11 17:55:00
12:15 PM,3.2,-4.0,72,29.85,10.0,WNW,12.7,-,N/A,,Clear,290,2012-12-11 18:15:00
12:35 PM,1.4,-4.0,78,29.85,10.0,West,10.4,-,N/A,,Clear,280,2012-12-11 18:35:00
12:55 PM,1.4,-5.8,72,29.85,10.0,WNW,9.2,-,N/A,,Clear,290,2012-12-11 18:55:00
1:15 PM,1.4,-5.8,72,29.84,10.0,West,8.1,-,N/A,,Clear,280,2012-12-11 19:15:00
1:35 PM,1.4,-5.8,72,29.85,10.0,WNW,12.7,-,N/A,,Clear,300,2012-12-11 19:35:00
1:55 PM,1.4,-5.8,72,29.85,10.0,WNW,10.4,-,N/A,,Clear,290,2012-12-11 19:55:00
2:15 PM,1.4,-7.6,66,29.87,10.0,NW,11.5,-,N/A,,Clear,310,2012-12-11 20:15:00
2:35 PM,1.4,-5.8,72,29.87,10.0,WNW,10.4,-,N/A,,Clear,300,2012-12-11 20:35:00
2:55 PM,-0.4,-5.8,78,29.87,10.0,NW,11.5,-,N/A,,Clear,310,2012-12-11 20:55:00
3:15 PM,-0.4,-5.8,78,29.87,10.0,WNW,9.2,-,N/A,,Clear,300,2012-12-11 21:15:00
3:35 PM,-0.4,-5.8,78,29.87,10.0,NW,8.1,-,N/A,,Clear,310,2012-12-11 21:35:00
3:55 PM,-0.4,-7.6,72,29.87,10.0,NW,6.9,-,N/A,,Clear,310,2012-12-11 21:55:00
4:15 PM,-0.4,-9.4,66,29.89,10.0,West,4.6,-,N/A,,Clear,280,2012-12-11 22:15:00
4:35 PM,-2.2,-5.8,85,29.88,10.0,Calm,Calm,-,N/A,,Clear,0,2012-12-11 22:35:00
4:55 PM,-2.2,-9.4,71,29.88,10.0,WNW,3.5,-,N/A,,Clear,300,2012-12-11 22:55:00
5:15 PM,-2.2,-9.4,71,29.89,10.0,West,3.5,-,N/A,,Clear,280,2012-12-11 23:15:00
5:35 PM,-4.0,-9.4,78,29.90,10.0,WSW,4.6,-,N/A,,Clear,250,2012-12-11 23:35:00
5:55 PM,-5.8,-9.4,84,29.91,10.0,West,3.5,-,N/A,,Clear,270,2012-12-11 23:55:00
6:15 PM,-5.8,-9.4,84,29.91,10.0,West,3.5,-,N/A,,Clear,270,2012-12-12 00:15:00
6:35 PM,-5.8,-7.6,92,29.90,10.0,Calm,Calm,-,N/A,,Clear,0,2012-12-12 00:35:00
6:55 PM,-5.8,-7.6,92,29.91,10.0,Calm,Calm,-,N/A,,Clear,0,2012-12-12 00:55:00
7:15 PM,-5.8,-9.4,84,29.91,10.0,Calm,Calm,-,N/A,,Clear,0,2012-12-12 01:15:00
7:35 PM,-7.6,-11.2,84,29.92,10.0,NW,3.5,-,N/A,,Clear,310,2012-12-12 01:35:00
7:55 PM,-7.6,-7.6,100,29.92,10.0,Calm,Calm,-,N/A,,Clear,0,2012-12-12 01:55:00
8:15 PM,-7.6,-14.8,71,29.91,10.0,Calm,Calm,-,N/A,,Clear,0,2012-12-12 02:15:00
8:35 PM,-7.6,-9999,N/A,29.91,10.0,ESE,5.8,-,N/A,,Clear,110,2012-12-12 02:35:00
8:55 PM,-9.4,-9.4,100,29.92,10.0,Calm,Calm,-,N/A,,Clear,0,2012-12-12 02:55:00
9:15 PM,-7.6,-13.0,77,29.92,10.0,Calm,Calm,-,N/A,,Clear,0,2012-12-12 03:15:00
9:35 PM,-7.6,-9.4,92,29.92,10.0,East,4.6,-,N/A,,Clear,80,2012-12-12 03:35:00
9:55 PM,-5.8,-11.2,77,29.92,10.0,East,4.6,-,N/A,,Clear,90,2012-12-12 03:55:00
10:15 PM,-5.8,-9.4,84,29.91,10.0,East,6.9,-,N/A,,Scattered Clouds,100,2012-12-12 04:15:00
10:35 PM,-4.0,-9.4,78,29.91,10.0,East,8.1,-,N/A,,Overcast,100,2012-12-12 04:35:00
10:55 PM,-2.2,-7.6,78,29.91,10.0,ESE,5.8,-,N/A,,Overcast,120,2012-12-12 04:55:00
11:15 PM,-2.2,-5.8,85,29.90,10.0,ESE,8.1,-,N/A,,Overcast,110,2012-12-12 05:15:00
11:35 PM,-2.2,-7.6,78,29.91,10.0,ESE,8.1,-,N/A,,Scattered Clouds,110,2012-12-12 05:35:00
11:55 PM,-0.4,-5.8,78,29.90,10.0,East,8.1,-,N/A,,Partly Cloudy,100,2012-12-12 05:55:00